sensor_id;sensor_type;location;lat;lon;timestamp;P1;durP1;ratioP1;P2;durP2;ratioP2
9997;SDS011;5038;53.064;8.624;2022-10-16T00:01:14;4.10;;;3.10;;
9997;SDS011;5038;53.064;8.624;2022-10-16T00:03:46;5.77;;;3.53;;
9997;SDS011;5038;53.064;8.624;2022-10-16T00:06:15;6.30;;;3.70;;
9997;SDS011;5038;53.064;8.624;2022-10-16T00:08:45;4.43;;;3.30;;
9997;SDS011;5038;53.064;8.624;2022-10-16T00:11:15;7.03;;;3.60;;
9997;SDS011;5038;53.064;8.624;2022-10-16T00:13:45;4.63;;;3.33;;
9997;SDS011;5038;53.064;8.624;2022-10-16T00:16:14;6.00;;;3.67;;
9997;SDS011;5038;53.064;8.624;2022-10-16T00:18:43;5.07;;;3.70;;
9997;SDS011;5038;53.064;8.624;2022-10-16T00:21:14;7.37;;;3.50;;
9997;SDS011;5038;53.064;8.624;2022-10-16T00:23:44;7.77;;;3.30;;
9997;SDS011;5038;53.064;8.624;2022-10-16T00:26:15;5.03;;;3.20;;
9997;SDS011;5038;53.064;8.624;2022-10-16T00:28:45;7.00;;;3.73;;
9997;SDS011;5038;53.064;8.624;2022-10-16T00:31:14;5.70;;;3.73;;
9997;SDS011;5038;53.064;8.624;2022-10-16T00:33:43;4.30;;;3.10;;
9997;SDS011;5038;53.064;8.624;2022-10-16T00:36:13;6.77;;;3.80;;
9997;SDS011;5038;53.064;8.624;2022-10-16T00:38:43;5.00;;;3.00;;
9997;SDS011;5038;53.064;8.624;2022-10-16T00:41:12;4.77;;;3.57;;
9997;SDS011;5038;53.064;8.624;2022-10-16T00:43:44;6.67;;;3.27;;
9997;SDS011;5038;53.064;8.624;2022-10-16T00:46:14;5.40;;;3.87;;
9997;SDS011;5038;53.064;8.624;2022-10-16T00:48:46;5.63;;;3.30;;
9997;SDS011;5038;53.064;8.624;2022-10-16T00:51:19;4.50;;;3.40;;
9997;SDS011;5038;53.064;8.624;2022-10-16T00:53:52;5.20;;;3.47;;
9997;SDS011;5038;53.064;8.624;2022-10-16T00:56:20;5.10;;;3.27;;
9997;SDS011;5038;53.064;8.624;2022-10-16T00:58:48;5.20;;;3.60;;
9997;SDS011;5038;53.064;8.624;2022-10-16T01:01:16;5.07;;;3.47;;
9997;SDS011;5038;53.064;8.624;2022-10-16T01:03:44;7.17;;;3.60;;
9997;SDS011;5038;53.064;8.624;2022-10-16T01:06:21;4.40;;;2.80;;
9997;SDS011;5038;53.064;8.624;2022-10-16T01:08:54;4.70;;;3.17;;
9997;SDS011;5038;53.064;8.624;2022-10-16T01:11:33;6.27;;;3.70;;
9997;SDS011;5038;53.064;8.624;2022-10-16T01:14:06;3.83;;;3.20;;
9997;SDS011;5038;53.064;8.624;2022-10-16T01:16:43;6.03;;;3.90;;
9997;SDS011;5038;53.064;8.624;2022-10-16T01:19:17;7.87;;;4.13;;
9997;SDS011;5038;53.064;8.624;2022-10-16T01:21:55;4.80;;;3.57;;
9997;SDS011;5038;53.064;8.624;2022-10-16T01:24:27;4.70;;;3.20;;
9997;SDS011;5038;53.064;8.624;2022-10-16T01:27:07;4.43;;;3.00;;
9997;SDS011;5038;53.064;8.624;2022-10-16T01:29:37;4.83;;;3.47;;
9997;SDS011;5038;53.064;8.624;2022-10-16T01:32:15;5.40;;;2.93;;
9997;SDS011;5038;53.064;8.624;2022-10-16T01:34:48;4.30;;;3.60;;
9997;SDS011;5038;53.064;8.624;2022-10-16T01:37:21;5.37;;;3.73;;
9997;SDS011;5038;53.064;8.624;2022-10-16T01:39:55;6.03;;;3.80;;
9997;SDS011;5038;53.064;8.624;2022-10-16T01:42:30;6.53;;;3.87;;
9997;SDS011;5038;53.064;8.624;2022-10-16T01:45:03;4.10;;;3.37;;
9997;SDS011;5038;53.064;8.624;2022-10-16T01:47:34;4.70;;;3.70;;
9997;SDS011;5038;53.064;8.624;2022-10-16T01:50:03;4.03;;;3.27;;
9997;SDS011;5038;53.064;8.624;2022-10-16T01:52:34;7.03;;;3.60;;
9997;SDS011;5038;53.064;8.624;2022-10-16T01:55:06;7.97;;;4.13;;
9997;SDS011;5038;53.064;8.624;2022-10-16T01:57:39;5.73;;;3.80;;
9997;SDS011;5038;53.064;8.624;2022-10-16T02:00:12;5.13;;;3.90;;
9997;SDS011;5038;53.064;8.624;2022-10-16T02:02:42;5.67;;;3.83;;
9997;SDS011;5038;53.064;8.624;2022-10-16T02:05:14;5.30;;;3.40;;
9997;SDS011;5038;53.064;8.624;2022-10-16T02:07:47;4.83;;;3.80;;
9997;SDS011;5038;53.064;8.624;2022-10-16T02:10:15;5.37;;;3.47;;
9997;SDS011;5038;53.064;8.624;2022-10-16T02:12:47;5.47;;;3.70;;
9997;SDS011;5038;53.064;8.624;2022-10-16T02:15:17;5.50;;;3.10;;
9997;SDS011;5038;53.064;8.624;2022-10-16T02:17:46;8.80;;;4.20;;
9997;SDS011;5038;53.064;8.624;2022-10-16T02:20:14;5.60;;;3.40;;
9997;SDS011;5038;53.064;8.624;2022-10-16T02:22:43;5.20;;;3.50;;
9997;SDS011;5038;53.064;8.624;2022-10-16T02:25:17;4.77;;;3.50;;
9997;SDS011;5038;53.064;8.624;2022-10-16T02:27:52;6.33;;;3.50;;
9997;SDS011;5038;53.064;8.624;2022-10-16T02:30:24;5.83;;;3.73;;
9997;SDS011;5038;53.064;8.624;2022-10-16T02:32:55;6.97;;;3.90;;
9997;SDS011;5038;53.064;8.624;2022-10-16T02:35:25;5.10;;;3.50;;
9997;SDS011;5038;53.064;8.624;2022-10-16T02:37:55;5.63;;;3.30;;
9997;SDS011;5038;53.064;8.624;2022-10-16T02:40:24;4.40;;;3.00;;
9997;SDS011;5038;53.064;8.624;2022-10-16T02:42:54;7.47;;;3.47;;
9997;SDS011;5038;53.064;8.624;2022-10-16T02:45:23;6.13;;;3.50;;
9997;SDS011;5038;53.064;8.624;2022-10-16T02:47:51;4.37;;;3.50;;
9997;SDS011;5038;53.064;8.624;2022-10-16T02:50:19;7.17;;;3.47;;
9997;SDS011;5038;53.064;8.624;2022-10-16T02:52:48;6.47;;;3.87;;
9997;SDS011;5038;53.064;8.624;2022-10-16T02:55:16;5.80;;;3.53;;
9997;SDS011;5038;53.064;8.624;2022-10-16T02:57:44;5.80;;;3.30;;
9997;SDS011;5038;53.064;8.624;2022-10-16T03:00:15;5.50;;;3.30;;
9997;SDS011;5038;53.064;8.624;2022-10-16T03:02:44;6.10;;;3.60;;
9997;SDS011;5038;53.064;8.624;2022-10-16T03:05:13;5.10;;;3.80;;
9997;SDS011;5038;53.064;8.624;2022-10-16T03:07:41;5.33;;;4.30;;
9997;SDS011;5038;53.064;8.624;2022-10-16T03:10:09;4.93;;;3.70;;
9997;SDS011;5038;53.064;8.624;2022-10-16T03:12:37;6.37;;;3.90;;
9997;SDS011;5038;53.064;8.624;2022-10-16T03:15:06;3.93;;;3.13;;
9997;SDS011;5038;53.064;8.624;2022-10-16T03:17:36;8.67;;;4.00;;
9997;SDS011;5038;53.064;8.624;2022-10-16T03:20:04;6.30;;;4.20;;
9997;SDS011;5038;53.064;8.624;2022-10-16T03:22:33;6.63;;;4.20;;
9997;SDS011;5038;53.064;8.624;2022-10-16T03:25:01;6.37;;;4.30;;
9997;SDS011;5038;53.064;8.624;2022-10-16T03:27:29;9.17;;;4.37;;
9997;SDS011;5038;53.064;8.624;2022-10-16T03:29:57;7.23;;;4.53;;
9997;SDS011;5038;53.064;8.624;2022-10-16T03:32:26;7.97;;;4.57;;
9997;SDS011;5038;53.064;8.624;2022-10-16T03:34:56;8.77;;;5.60;;
9997;SDS011;5038;53.064;8.624;2022-10-16T03:37:24;6.87;;;4.87;;
9997;SDS011;5038;53.064;8.624;2022-10-16T03:39:53;8.20;;;5.17;;
9997;SDS011;5038;53.064;8.624;2022-10-16T03:42:21;6.37;;;4.83;;
9997;SDS011;5038;53.064;8.624;2022-10-16T03:44:50;6.23;;;5.10;;
9997;SDS011;5038;53.064;8.624;2022-10-16T03:47:18;8.90;;;6.40;;
9997;SDS011;5038;53.064;8.624;2022-10-16T03:49:50;8.80;;;5.60;;
9997;SDS011;5038;53.064;8.624;2022-10-16T03:52:19;9.80;;;6.53;;
9997;SDS011;5038;53.064;8.624;2022-10-16T03:54:48;6.77;;;6.10;;
9997;SDS011;5038;53.064;8.624;2022-10-16T03:57:16;8.60;;;7.33;;
9997;SDS011;5038;53.064;8.624;2022-10-16T03:59:44;8.90;;;8.00;;
9997;SDS011;5038;53.064;8.624;2022-10-16T04:02:12;8.73;;;7.10;;
9997;SDS011;5038;53.064;8.624;2022-10-16T04:04:40;14.20;;;8.07;;
9997;SDS011;5038;53.064;8.624;2022-10-16T04:07:08;9.27;;;7.50;;
9997;SDS011;5038;53.064;8.624;2022-10-16T04:09:38;12.30;;;7.33;;
9997;SDS011;5038;53.064;8.624;2022-10-16T04:12:06;7.93;;;7.20;;
9997;SDS011;5038;53.064;8.624;2022-10-16T04:14:34;8.30;;;7.43;;
9997;SDS011;5038;53.064;8.624;2022-10-16T04:17:02;9.63;;;8.70;;
9997;SDS011;5038;53.064;8.624;2022-10-16T04:19:30;10.93;;;8.17;;
9997;SDS011;5038;53.064;8.624;2022-10-16T04:21:58;10.73;;;9.73;;
9997;SDS011;5038;53.064;8.624;2022-10-16T04:24:26;11.90;;;10.70;;
9997;SDS011;5038;53.064;8.624;2022-10-16T04:26:56;12.50;;;11.23;;
9997;SDS011;5038;53.064;8.624;2022-10-16T04:29:24;13.53;;;12.13;;
9997;SDS011;5038;53.064;8.624;2022-10-16T04:31:52;13.13;;;11.70;;
9997;SDS011;5038;53.064;8.624;2022-10-16T04:34:20;14.50;;;13.00;;
9997;SDS011;5038;53.064;8.624;2022-10-16T04:36:48;13.60;;;12.10;;
9997;SDS011;5038;53.064;8.624;2022-10-16T04:39:16;16.97;;;14.53;;
9997;SDS011;5038;53.064;8.624;2022-10-16T04:41:44;16.00;;;13.47;;
9997;SDS011;5038;53.064;8.624;2022-10-16T04:44:14;14.80;;;13.00;;
9997;SDS011;5038;53.064;8.624;2022-10-16T04:46:42;15.17;;;13.77;;
9997;SDS011;5038;53.064;8.624;2022-10-16T04:49:10;15.30;;;13.80;;
9997;SDS011;5038;53.064;8.624;2022-10-16T04:51:38;16.20;;;14.60;;
9997;SDS011;5038;53.064;8.624;2022-10-16T04:54:06;12.47;;;11.17;;
9997;SDS011;5038;53.064;8.624;2022-10-16T04:56:36;17.80;;;16.13;;
9997;SDS011;5038;53.064;8.624;2022-10-16T04:59:09;19.30;;;16.00;;
9997;SDS011;5038;53.064;8.624;2022-10-16T05:01:39;17.27;;;15.57;;
9997;SDS011;5038;53.064;8.624;2022-10-16T05:04:07;20.53;;;16.77;;
9997;SDS011;5038;53.064;8.624;2022-10-16T05:06:35;19.30;;;16.87;;
9997;SDS011;5038;53.064;8.624;2022-10-16T05:09:04;18.87;;;16.87;;
9997;SDS011;5038;53.064;8.624;2022-10-16T05:11:33;18.43;;;16.50;;
9997;SDS011;5038;53.064;8.624;2022-10-16T05:14:01;18.67;;;16.83;;
9997;SDS011;5038;53.064;8.624;2022-10-16T05:16:30;17.80;;;15.90;;
9997;SDS011;5038;53.064;8.624;2022-10-16T05:18:59;19.23;;;15.90;;
9997;SDS011;5038;53.064;8.624;2022-10-16T05:21:47;19.77;;;17.77;;
9997;SDS011;5038;53.064;8.624;2022-10-16T05:24:16;19.20;;;17.20;;
9997;SDS011;5038;53.064;8.624;2022-10-16T05:26:44;20.53;;;17.80;;
9997;SDS011;5038;53.064;8.624;2022-10-16T05:29:12;20.37;;;18.27;;
9997;SDS011;5038;53.064;8.624;2022-10-16T05:31:40;19.43;;;17.43;;
9997;SDS011;5038;53.064;8.624;2022-10-16T05:34:09;26.63;;;19.33;;
9997;SDS011;5038;53.064;8.624;2022-10-16T05:36:37;19.13;;;17.30;;
9997;SDS011;5038;53.064;8.624;2022-10-16T05:39:05;18.47;;;16.80;;
9997;SDS011;5038;53.064;8.624;2022-10-16T05:41:34;21.37;;;19.27;;
9997;SDS011;5038;53.064;8.624;2022-10-16T05:44:03;20.57;;;18.47;;
9997;SDS011;5038;53.064;8.624;2022-10-16T05:46:32;19.90;;;17.83;;
9997;SDS011;5038;53.064;8.624;2022-10-16T05:49:01;19.37;;;17.47;;
9997;SDS011;5038;53.064;8.624;2022-10-16T05:51:30;17.77;;;15.97;;
9997;SDS011;5038;53.064;8.624;2022-10-16T05:53:58;20.83;;;18.80;;
9997;SDS011;5038;53.064;8.624;2022-10-16T05:56:26;18.83;;;16.97;;
9997;SDS011;5038;53.064;8.624;2022-10-16T05:58:55;18.53;;;16.73;;
9997;SDS011;5038;53.064;8.624;2022-10-16T06:01:23;18.90;;;16.93;;
9997;SDS011;5038;53.064;8.624;2022-10-16T06:03:51;18.93;;;17.20;;
9997;SDS011;5038;53.064;8.624;2022-10-16T06:06:20;18.43;;;16.53;;
9997;SDS011;5038;53.064;8.624;2022-10-16T06:08:52;18.53;;;16.70;;
9997;SDS011;5038;53.064;8.624;2022-10-16T06:11:21;18.27;;;16.40;;
9997;SDS011;5038;53.064;8.624;2022-10-16T06:13:51;18.50;;;16.77;;
9997;SDS011;5038;53.064;8.624;2022-10-16T06:16:23;17.17;;;15.07;;
9997;SDS011;5038;53.064;8.624;2022-10-16T06:18:52;16.97;;;15.27;;
9997;SDS011;5038;53.064;8.624;2022-10-16T06:21:22;17.13;;;15.37;;
9997;SDS011;5038;53.064;8.624;2022-10-16T06:23:53;17.63;;;15.90;;
9997;SDS011;5038;53.064;8.624;2022-10-16T06:26:22;17.30;;;15.50;;
9997;SDS011;5038;53.064;8.624;2022-10-16T06:28:53;17.43;;;15.50;;
9997;SDS011;5038;53.064;8.624;2022-10-16T06:31:24;16.50;;;14.87;;
9997;SDS011;5038;53.064;8.624;2022-10-16T06:33:54;17.17;;;15.47;;
9997;SDS011;5038;53.064;8.624;2022-10-16T06:36:23;15.90;;;14.33;;
9997;SDS011;5038;53.064;8.624;2022-10-16T06:38:53;16.30;;;14.70;;
9997;SDS011;5038;53.064;8.624;2022-10-16T06:41:21;16.20;;;14.60;;
9997;SDS011;5038;53.064;8.624;2022-10-16T06:43:50;15.87;;;14.27;;
9997;SDS011;5038;53.064;8.624;2022-10-16T06:46:19;16.90;;;15.37;;
9997;SDS011;5038;53.064;8.624;2022-10-16T06:48:49;15.90;;;14.27;;
9997;SDS011;5038;53.064;8.624;2022-10-16T06:51:18;15.57;;;13.97;;
9997;SDS011;5038;53.064;8.624;2022-10-16T06:53:47;20.20;;;18.27;;
9997;SDS011;5038;53.064;8.624;2022-10-16T06:56:33;16.57;;;14.97;;
9997;SDS011;5038;53.064;8.624;2022-10-16T06:59:02;16.50;;;14.80;;
9997;SDS011;5038;53.064;8.624;2022-10-16T07:01:32;16.43;;;14.87;;
9997;SDS011;5038;53.064;8.624;2022-10-16T07:04:00;15.87;;;14.37;;
9997;SDS011;5038;53.064;8.624;2022-10-16T07:06:30;14.70;;;13.30;;
9997;SDS011;5038;53.064;8.624;2022-10-16T07:09:00;15.30;;;13.67;;
9997;SDS011;5038;53.064;8.624;2022-10-16T07:11:32;16.90;;;15.30;;
9997;SDS011;5038;53.064;8.624;2022-10-16T07:14:01;15.30;;;13.80;;
9997;SDS011;5038;53.064;8.624;2022-10-16T07:16:30;16.43;;;14.73;;
9997;SDS011;5038;53.064;8.624;2022-10-16T07:19:00;13.53;;;12.07;;
9997;SDS011;5038;53.064;8.624;2022-10-16T07:21:30;14.40;;;13.10;;
9997;SDS011;5038;53.064;8.624;2022-10-16T07:24:03;14.17;;;12.67;;
9997;SDS011;5038;53.064;8.624;2022-10-16T07:26:35;14.47;;;12.80;;
9997;SDS011;5038;53.064;8.624;2022-10-16T07:29:06;13.33;;;12.03;;
9997;SDS011;5038;53.064;8.624;2022-10-16T07:31:34;13.50;;;12.20;;
9997;SDS011;5038;53.064;8.624;2022-10-16T07:34:04;12.80;;;11.57;;
9997;SDS011;5038;53.064;8.624;2022-10-16T07:36:33;13.53;;;12.23;;
9997;SDS011;5038;53.064;8.624;2022-10-16T07:39:01;13.80;;;12.33;;
9997;SDS011;5038;53.064;8.624;2022-10-16T07:41:29;12.50;;;11.23;;
9997;SDS011;5038;53.064;8.624;2022-10-16T07:44:00;12.20;;;11.00;;
9997;SDS011;5038;53.064;8.624;2022-10-16T07:46:28;12.40;;;11.20;;
9997;SDS011;5038;53.064;8.624;2022-10-16T07:48:57;17.50;;;11.40;;
9997;SDS011;5038;53.064;8.624;2022-10-16T07:51:25;13.63;;;10.80;;
9997;SDS011;5038;53.064;8.624;2022-10-16T07:53:53;12.20;;;11.07;;
9997;SDS011;5038;53.064;8.624;2022-10-16T07:56:22;12.37;;;11.00;;
9997;SDS011;5038;53.064;8.624;2022-10-16T07:58:50;11.50;;;10.37;;
9997;SDS011;5038;53.064;8.624;2022-10-16T08:01:20;13.50;;;11.33;;
9997;SDS011;5038;53.064;8.624;2022-10-16T08:03:49;11.67;;;10.20;;
9997;SDS011;5038;53.064;8.624;2022-10-16T08:06:18;11.47;;;10.27;;
9997;SDS011;5038;53.064;8.624;2022-10-16T08:08:53;10.60;;;9.60;;
9997;SDS011;5038;53.064;8.624;2022-10-16T08:11:22;10.47;;;8.43;;
9997;SDS011;5038;53.064;8.624;2022-10-16T08:13:50;9.93;;;9.03;;
9997;SDS011;5038;53.064;8.624;2022-10-16T08:16:20;9.53;;;8.13;;
9997;SDS011;5038;53.064;8.624;2022-10-16T08:18:48;8.67;;;7.80;;
9997;SDS011;5038;53.064;8.624;2022-10-16T08:21:18;7.47;;;6.67;;
9997;SDS011;5038;53.064;8.624;2022-10-16T08:23:49;9.30;;;8.37;;
9997;SDS011;5038;53.064;8.624;2022-10-16T08:26:24;13.90;;;7.30;;
9997;SDS011;5038;53.064;8.624;2022-10-16T08:28:53;7.10;;;6.40;;
9997;SDS011;5038;53.064;8.624;2022-10-16T08:31:23;8.03;;;6.13;;
9997;SDS011;5038;53.064;8.624;2022-10-16T08:33:52;9.63;;;6.03;;
9997;SDS011;5038;53.064;8.624;2022-10-16T08:36:21;6.83;;;5.37;;
9997;SDS011;5038;53.064;8.624;2022-10-16T08:38:49;6.60;;;5.00;;
9997;SDS011;5038;53.064;8.624;2022-10-16T08:47:18;6.20;;;4.47;;
9997;SDS011;5038;53.064;8.624;2022-10-16T08:49:53;5.77;;;4.60;;
9997;SDS011;5038;53.064;8.624;2022-10-16T08:52:24;4.93;;;3.90;;
9997;SDS011;5038;53.064;8.624;2022-10-16T08:54:56;7.73;;;4.23;;
9997;SDS011;5038;53.064;8.624;2022-10-16T08:57:25;5.00;;;3.80;;
9997;SDS011;5038;53.064;8.624;2022-10-16T08:59:53;6.80;;;4.50;;
9997;SDS011;5038;53.064;8.624;2022-10-16T09:02:28;5.43;;;3.40;;
9997;SDS011;5038;53.064;8.624;2022-10-16T09:05:02;5.80;;;3.53;;
9997;SDS011;5038;53.064;8.624;2022-10-16T09:07:46;5.80;;;3.50;;
9997;SDS011;5038;53.064;8.624;2022-10-16T09:10:26;5.77;;;3.80;;
9997;SDS011;5038;53.064;8.624;2022-10-16T09:13:07;5.30;;;3.30;;
9997;SDS011;5038;53.064;8.624;2022-10-16T09:15:46;5.50;;;2.93;;
9997;SDS011;5038;53.064;8.624;2022-10-16T09:18:22;3.83;;;2.90;;
9997;SDS011;5038;53.064;8.624;2022-10-16T09:20:59;6.10;;;2.53;;
9997;SDS011;5038;53.064;8.624;2022-10-16T09:23:33;5.50;;;2.70;;
9997;SDS011;5038;53.064;8.624;2022-10-16T09:26:03;6.47;;;2.07;;
9997;SDS011;5038;53.064;8.624;2022-10-16T09:28:35;6.20;;;2.77;;
9997;SDS011;5038;53.064;8.624;2022-10-16T09:31:03;4.87;;;2.80;;
9997;SDS011;5038;53.064;8.624;2022-10-16T09:33:34;4.63;;;2.87;;
9997;SDS011;5038;53.064;8.624;2022-10-16T09:36:06;4.87;;;2.70;;
9997;SDS011;5038;53.064;8.624;2022-10-16T09:38:36;6.20;;;2.70;;
9997;SDS011;5038;53.064;8.624;2022-10-16T09:41:14;9.50;;;3.17;;
9997;SDS011;5038;53.064;8.624;2022-10-16T09:43:48;5.43;;;2.50;;
9997;SDS011;5038;53.064;8.624;2022-10-16T09:46:22;4.00;;;2.40;;
9997;SDS011;5038;53.064;8.624;2022-10-16T09:48:56;5.27;;;2.27;;
9997;SDS011;5038;53.064;8.624;2022-10-16T09:51:27;5.17;;;2.27;;
9997;SDS011;5038;53.064;8.624;2022-10-16T09:53:57;4.40;;;2.43;;
9997;SDS011;5038;53.064;8.624;2022-10-16T09:56:27;4.67;;;2.10;;
9997;SDS011;5038;53.064;8.624;2022-10-16T09:58:57;6.43;;;3.00;;
9997;SDS011;5038;53.064;8.624;2022-10-16T10:01:29;7.60;;;2.97;;
9997;SDS011;5038;53.064;8.624;2022-10-16T10:04:04;4.87;;;2.40;;
9997;SDS011;5038;53.064;8.624;2022-10-16T10:06:33;3.90;;;2.40;;
9997;SDS011;5038;53.064;8.624;2022-10-16T10:09:05;5.67;;;2.43;;
9997;SDS011;5038;53.064;8.624;2022-10-16T10:11:43;5.83;;;2.50;;
9997;SDS011;5038;53.064;8.624;2022-10-16T10:14:18;7.17;;;2.30;;
9997;SDS011;5038;53.064;8.624;2022-10-16T10:16:49;4.00;;;2.00;;
9997;SDS011;5038;53.064;8.624;2022-10-16T10:19:20;4.23;;;2.37;;
9997;SDS011;5038;53.064;8.624;2022-10-16T10:21:53;3.53;;;1.90;;
9997;SDS011;5038;53.064;8.624;2022-10-16T10:24:21;6.03;;;1.80;;
9997;SDS011;5038;53.064;8.624;2022-10-16T10:26:51;5.00;;;1.80;;
9997;SDS011;5038;53.064;8.624;2022-10-16T10:29:28;4.13;;;1.60;;
9997;SDS011;5038;53.064;8.624;2022-10-16T10:32:07;6.10;;;1.90;;
9997;SDS011;5038;53.064;8.624;2022-10-16T10:34:51;4.80;;;2.10;;
9997;SDS011;5038;53.064;8.624;2022-10-16T10:37:40;4.77;;;1.63;;
9997;SDS011;5038;53.064;8.624;2022-10-16T10:40:33;4.17;;;1.83;;
9997;SDS011;5038;53.064;8.624;2022-10-16T10:43:09;5.37;;;1.50;;
9997;SDS011;5038;53.064;8.624;2022-10-16T10:45:48;4.83;;;1.60;;
9997;SDS011;5038;53.064;8.624;2022-10-16T10:48:25;4.13;;;1.57;;
9997;SDS011;5038;53.064;8.624;2022-10-16T10:51:25;5.90;;;1.97;;
9997;SDS011;5038;53.064;8.624;2022-10-16T10:54:02;4.50;;;1.80;;
9997;SDS011;5038;53.064;8.624;2022-10-16T10:56:42;4.37;;;1.70;;
9997;SDS011;5038;53.064;8.624;2022-10-16T10:59:32;4.47;;;2.30;;
9997;SDS011;5038;53.064;8.624;2022-10-16T11:02:13;3.43;;;1.80;;
9997;SDS011;5038;53.064;8.624;2022-10-16T11:04:52;4.87;;;1.60;;
9997;SDS011;5038;53.064;8.624;2022-10-16T11:07:41;3.37;;;1.77;;
9997;SDS011;5038;53.064;8.624;2022-10-16T11:10:15;7.43;;;2.00;;
9997;SDS011;5038;53.064;8.624;2022-10-16T11:12:47;4.30;;;1.60;;
9997;SDS011;5038;53.064;8.624;2022-10-16T11:15:19;4.93;;;2.40;;
9997;SDS011;5038;53.064;8.624;2022-10-16T11:17:52;4.50;;;1.70;;
9997;SDS011;5038;53.064;8.624;2022-10-16T11:20:24;4.70;;;1.90;;
9997;SDS011;5038;53.064;8.624;2022-10-16T11:22:58;5.07;;;2.10;;
9997;SDS011;5038;53.064;8.624;2022-10-16T11:25:32;5.43;;;2.00;;
9997;SDS011;5038;53.064;8.624;2022-10-16T11:28:01;3.10;;;1.60;;
9997;SDS011;5038;53.064;8.624;2022-10-16T11:30:39;4.63;;;1.80;;
9997;SDS011;5038;53.064;8.624;2022-10-16T11:33:22;5.83;;;2.00;;
9997;SDS011;5038;53.064;8.624;2022-10-16T11:36:00;4.63;;;1.67;;
9997;SDS011;5038;53.064;8.624;2022-10-16T11:38:36;6.40;;;1.80;;
9997;SDS011;5038;53.064;8.624;2022-10-16T11:41:12;5.20;;;2.50;;
9997;SDS011;5038;53.064;8.624;2022-10-16T11:43:49;3.80;;;1.37;;
9997;SDS011;5038;53.064;8.624;2022-10-16T11:46:26;5.67;;;2.47;;
9997;SDS011;5038;53.064;8.624;2022-10-16T11:48:57;4.63;;;1.60;;
9997;SDS011;5038;53.064;8.624;2022-10-16T11:51:32;6.57;;;2.40;;
9997;SDS011;5038;53.064;8.624;2022-10-16T11:54:07;5.60;;;1.70;;
9997;SDS011;5038;53.064;8.624;2022-10-16T11:56:42;6.27;;;1.83;;
9997;SDS011;5038;53.064;8.624;2022-10-16T11:59:15;4.60;;;1.60;;
9997;SDS011;5038;53.064;8.624;2022-10-16T12:01:52;4.23;;;1.73;;
9997;SDS011;5038;53.064;8.624;2022-10-16T12:04:28;3.97;;;1.40;;
9997;SDS011;5038;53.064;8.624;2022-10-16T12:07:02;5.37;;;1.80;;
9997;SDS011;5038;53.064;8.624;2022-10-16T12:09:36;7.57;;;1.77;;
9997;SDS011;5038;53.064;8.624;2022-10-16T12:15:00;5.37;;;1.50;;
9997;SDS011;5038;53.064;8.624;2022-10-16T12:17:47;6.70;;;1.97;;
9997;SDS011;5038;53.064;8.624;2022-10-16T12:20:24;5.77;;;2.43;;
9997;SDS011;5038;53.064;8.624;2022-10-16T12:22:59;6.47;;;1.73;;
9997;SDS011;5038;53.064;8.624;2022-10-16T12:25:32;7.97;;;2.60;;
9997;SDS011;5038;53.064;8.624;2022-10-16T12:28:02;3.90;;;1.47;;
9997;SDS011;5038;53.064;8.624;2022-10-16T12:30:33;4.10;;;1.47;;
9997;SDS011;5038;53.064;8.624;2022-10-16T12:33:03;4.60;;;1.60;;
9997;SDS011;5038;53.064;8.624;2022-10-16T12:35:34;9.13;;;2.03;;
9997;SDS011;5038;53.064;8.624;2022-10-16T12:38:15;5.80;;;2.90;;
9997;SDS011;5038;53.064;8.624;2022-10-16T12:40:47;8.10;;;2.07;;
9997;SDS011;5038;53.064;8.624;2022-10-16T12:43:34;4.77;;;1.80;;
9997;SDS011;5038;53.064;8.624;2022-10-16T12:46:05;4.67;;;1.87;;
9997;SDS011;5038;53.064;8.624;2022-10-16T12:48:48;8.17;;;2.70;;
9997;SDS011;5038;53.064;8.624;2022-10-16T12:51:33;7.03;;;3.57;;
9997;SDS011;5038;53.064;8.624;2022-10-16T12:54:03;9.57;;;2.33;;
9997;SDS011;5038;53.064;8.624;2022-10-16T12:56:44;4.60;;;1.90;;
9997;SDS011;5038;53.064;8.624;2022-10-16T12:59:22;6.87;;;1.87;;
9997;SDS011;5038;53.064;8.624;2022-10-16T13:02:04;5.90;;;2.10;;
9997;SDS011;5038;53.064;8.624;2022-10-16T13:05:04;6.60;;;1.50;;
9997;SDS011;5038;53.064;8.624;2022-10-16T13:07:51;3.73;;;1.43;;
9997;SDS011;5038;53.064;8.624;2022-10-16T13:10:28;4.30;;;1.80;;
9997;SDS011;5038;53.064;8.624;2022-10-16T13:13:12;9.03;;;2.17;;
9997;SDS011;5038;53.064;8.624;2022-10-16T13:15:53;7.10;;;2.00;;
9997;SDS011;5038;53.064;8.624;2022-10-16T13:18:32;4.40;;;1.80;;
9997;SDS011;5038;53.064;8.624;2022-10-16T13:21:11;6.70;;;1.37;;
9997;SDS011;5038;53.064;8.624;2022-10-16T13:23:51;7.00;;;1.60;;
9997;SDS011;5038;53.064;8.624;2022-10-16T13:26:30;5.77;;;2.47;;
9997;SDS011;5038;53.064;8.624;2022-10-16T13:29:09;5.03;;;2.00;;
9997;SDS011;5038;53.064;8.624;2022-10-16T13:31:37;6.57;;;2.50;;
9997;SDS011;5038;53.064;8.624;2022-10-16T13:34:06;5.50;;;1.90;;
9997;SDS011;5038;53.064;8.624;2022-10-16T13:36:45;3.93;;;1.97;;
9997;SDS011;5038;53.064;8.624;2022-10-16T13:39:20;4.43;;;1.70;;
9997;SDS011;5038;53.064;8.624;2022-10-16T13:42:03;5.10;;;1.50;;
9997;SDS011;5038;53.064;8.624;2022-10-16T13:44:37;4.23;;;1.60;;
9997;SDS011;5038;53.064;8.624;2022-10-16T13:47:14;7.03;;;1.77;;
9997;SDS011;5038;53.064;8.624;2022-10-16T13:49:44;6.23;;;2.10;;
9997;SDS011;5038;53.064;8.624;2022-10-16T13:52:16;3.70;;;1.80;;
9997;SDS011;5038;53.064;8.624;2022-10-16T13:54:46;5.17;;;1.60;;
9997;SDS011;5038;53.064;8.624;2022-10-16T13:57:14;4.77;;;1.90;;
9997;SDS011;5038;53.064;8.624;2022-10-16T13:59:59;4.23;;;1.80;;
9997;SDS011;5038;53.064;8.624;2022-10-16T14:02:30;6.57;;;2.10;;
9997;SDS011;5038;53.064;8.624;2022-10-16T14:05:03;4.37;;;1.90;;
9997;SDS011;5038;53.064;8.624;2022-10-16T14:07:36;6.53;;;1.80;;
9997;SDS011;5038;53.064;8.624;2022-10-16T14:10:05;8.30;;;2.00;;
9997;SDS011;5038;53.064;8.624;2022-10-16T14:12:53;5.00;;;1.57;;
9997;SDS011;5038;53.064;8.624;2022-10-16T14:15:24;5.63;;;1.67;;
9997;SDS011;5038;53.064;8.624;2022-10-16T14:17:53;4.20;;;1.60;;
9997;SDS011;5038;53.064;8.624;2022-10-16T14:20:24;7.50;;;2.10;;
9997;SDS011;5038;53.064;8.624;2022-10-16T14:22:58;3.60;;;1.47;;
9997;SDS011;5038;53.064;8.624;2022-10-16T14:25:29;5.13;;;2.10;;
9997;SDS011;5038;53.064;8.624;2022-10-16T14:27:59;6.27;;;2.10;;
9997;SDS011;5038;53.064;8.624;2022-10-16T14:30:32;6.20;;;1.83;;
9997;SDS011;5038;53.064;8.624;2022-10-16T14:33:02;4.20;;;1.70;;
9997;SDS011;5038;53.064;8.624;2022-10-16T14:35:33;4.43;;;1.70;;
9997;SDS011;5038;53.064;8.624;2022-10-16T14:38:04;4.17;;;1.97;;
9997;SDS011;5038;53.064;8.624;2022-10-16T14:40:33;4.97;;;2.20;;
9997;SDS011;5038;53.064;8.624;2022-10-16T14:43:04;5.43;;;1.83;;
9997;SDS011;5038;53.064;8.624;2022-10-16T14:45:34;6.83;;;2.57;;
9997;SDS011;5038;53.064;8.624;2022-10-16T14:48:04;6.83;;;1.80;;
9997;SDS011;5038;53.064;8.624;2022-10-16T14:50:45;6.33;;;2.30;;
9997;SDS011;5038;53.064;8.624;2022-10-16T14:53:13;5.63;;;1.50;;
9997;SDS011;5038;53.064;8.624;2022-10-16T14:55:42;6.77;;;2.30;;
9997;SDS011;5038;53.064;8.624;2022-10-16T14:58:11;9.70;;;2.10;;
9997;SDS011;5038;53.064;8.624;2022-10-16T15:00:43;5.50;;;1.87;;
9997;SDS011;5038;53.064;8.624;2022-10-16T15:03:12;4.30;;;1.67;;
9997;SDS011;5038;53.064;8.624;2022-10-16T15:05:40;5.97;;;2.20;;
9997;SDS011;5038;53.064;8.624;2022-10-16T15:08:08;4.60;;;1.70;;
9997;SDS011;5038;53.064;8.624;2022-10-16T15:10:38;6.00;;;2.00;;
9997;SDS011;5038;53.064;8.624;2022-10-16T15:13:09;4.77;;;2.00;;
9997;SDS011;5038;53.064;8.624;2022-10-16T15:15:42;5.37;;;1.60;;
9997;SDS011;5038;53.064;8.624;2022-10-16T15:18:12;5.77;;;2.03;;
9997;SDS011;5038;53.064;8.624;2022-10-16T15:20:47;4.23;;;2.27;;
9997;SDS011;5038;53.064;8.624;2022-10-16T15:23:16;6.60;;;2.03;;
9997;SDS011;5038;53.064;8.624;2022-10-16T15:25:46;4.63;;;1.80;;
9997;SDS011;5038;53.064;8.624;2022-10-16T15:28:16;6.60;;;1.80;;
9997;SDS011;5038;53.064;8.624;2022-10-16T15:30:48;3.90;;;1.70;;
9997;SDS011;5038;53.064;8.624;2022-10-16T15:33:19;6.10;;;2.10;;
9997;SDS011;5038;53.064;8.624;2022-10-16T15:35:49;6.50;;;2.20;;
9997;SDS011;5038;53.064;8.624;2022-10-16T15:38:19;5.63;;;2.20;;
9997;SDS011;5038;53.064;8.624;2022-10-16T15:40:48;4.63;;;1.50;;
9997;SDS011;5038;53.064;8.624;2022-10-16T15:43:16;5.50;;;2.23;;
9997;SDS011;5038;53.064;8.624;2022-10-16T15:45:45;5.30;;;2.23;;